Last 7 Days

Abernathy 1 (AB1)

Hourly Data | America/Los_Angeles
as of 10/23/19 9:28 AM PDT
Date & Time Temp (°F) RH (%) Dew Pt (°F) Wind Spd (mph) Wind Dir (°) Wind Gust (mph) Wind Gst Dir (°) Latest Rain (In) Solar Rad Tot Hr (Cal/cm2) Daily Rain (In) Daily Min Temp (°F) Daily Max Temp (°F)
10/23/19 - 0900 55.7 75 47.7 0.5 NW | 325 2.7 NNW | 332 0.00 15 0.00 47.3 63.5
10/23/19 - 0800 48.0 86 44.2 0.4 NNW | 328 2.6 NW | 310 0.00 1 0.00 47.3 55.0
10/23/19 - 0700 48.4 85 44.3 0.4 W | 267 3.1 WNW | 294 0.00 0 0.00 47.3 55.0
10/23/19 - 0600 49.0 84 44.2 0.5 NNE | 12 4.4 NW | 318 0.00 0 0.00 47.7 55.0
10/23/19 - 0500 48.8 77 41.7 0.3 WSW | 245 2.6 SSW | 211 0.00 0 0.00 47.8 55.0
10/23/19 - 0400 50.6 74 42.6 0.4 N | 355 3.9 N | 351 0.00 0 0.00 49.8 55.0
10/23/19 - 0300 52.0 71 43.0 0.5 NNW | 334 4.3 W | 268 0.00 0 0.00 50.9 55.0
10/23/19 - 0200 52.4 73 43.9 0.3 N | 1 2.7 ENE | 71 0.00 0 0.00 51.7 55.0
10/23/19 - 0100 53.6 70 44.2 0.1 N | 8 1.9 N | 350 0.00 0 0.00 52.3 55.0
10/23/19 - 0000 55.7 66 44.4 0.1 SW | 221 2.2 SSW | 198 0.00 0 0.00 44.1 88.1
10/22/19 - 2300 58.1 63 45.4 0.6 WSW | 242 4.3 WSW | 248 0.00 0 0.00 44.1 88.1
10/22/19 - 2200 61.3 57 46.2 0.9 WNW | 283 3.3 WNW | 291 0.00 0 0.00 44.1 88.1
10/22/19 - 2100 63.0 55 46.8 1.2 W | 278 3.9 W | 275 0.00 0 0.00 44.1 88.1
10/22/19 - 2000 65.7 53 47.9 0.4 NW | 312 3.1 WNW | 296 0.00 0 0.00 44.1 88.1
10/22/19 - 1900 75.5 38 47.8 0.6 SSW | 205 3.1 SW | 224 0.00 1 0.00 44.1 88.1
10/22/19 - 1800 82.9 29 47.4 1.8 S | 180 5.6 SSW | 193 0.00 8 0.00 44.1 88.1
10/22/19 - 1700 84.8 28 48.4 3.4 S | 188 6.4 SSW | 192 0.00 15 0.00 44.1 88.1
10/22/19 - 1600 86.1 28 49.0 3.6 SSE | 160 6.9 SSE | 154 0.00 25 0.00 44.1 88.1
10/22/19 - 1500 87.1 26 48.4 3.0 S | 172 7.8 SSW | 198 0.00 45 0.00 44.1 88.1
10/22/19 - 1400 85.4 27 47.3 2.8 SSE | 166 6.3 ESE | 112 0.00 55 0.00 44.1 86.3
10/22/19 - 1300 83.5 27 46.0 2.2 SE | 146 5.4 SE | 143 0.00 56 0.00 44.1 85.0
10/22/19 - 1200 80.4 29 45.5 1.9 E | 88 4.9 ENE | 59 0.00 50 0.00 44.1 82.2
10/22/19 - 1100 77.0 33 46.0 1.9 SE | 141 5.1 SSE | 151 0.00 43 0.00 44.1 77.9
10/22/19 - 1000 68.7 44 45.4 0.9 S | 169 4.1 ESE | 116 0.00 31 0.00 44.1 75.4
10/22/19 - 0900 54.3 70 44.6 0.2 W | 281 2.7 WNW | 296 0.00 16 0.00 44.1 63.1
10/22/19 - 0800 45.2 81 39.9 0.1 WNW | 287 1.6 WNW | 283 0.00 1 0.00 44.1 55.9
10/22/19 - 0700 45.0 80 39.1 0.0 WNW | 289 1.2 WNW | 300 0.00 0 0.00 44.2 55.9
10/22/19 - 0600 46.0 78 39.6 0.0 NW | 315 1.4 NW | 322 0.00 0 0.00 45.0 55.9
10/22/19 - 0500 46.5 78 40.0 0.1 WNW | 286 2.1 NW | 311 0.00 0 0.00 45.7 55.9
10/22/19 - 0400 48.2 77 41.2 0.1 NNW | 342 2.7 NNW | 347 0.00 0 0.00 46.9 55.9
10/22/19 - 0300 48.5 76 41.5 0.3 NNE | 13 4.3 N | 349 0.00 0 0.00 47.4 55.9
10/22/19 - 0200 50.6 74 42.5 0.1 NNW | 327 2.2 NW | 308 0.00 0 0.00 49.1 55.9
10/22/19 - 0100 54.3 63 42.0 0.4 N | 5 4.4 NNE | 17 0.00 0 0.00 52.3 55.9
10/22/19 - 0000 58.1 51 40.0 0.7 N | 1 7.3 E | 98 0.00 0 0.00 48.6 90.7
10/21/19 - 2300 62.7 41 38.6 0.9 N | 353 6.8 NW | 325 0.00 0 0.00 48.6 90.7
10/21/19 - 2200 63.2 40 38.6 1.2 SW | 216 4.8 NNW | 338 0.00 0 0.00 48.6 90.7
10/21/19 - 2100 68.0 34 38.1 1.1 WSW | 255 5.4 SSW | 195 0.00 0 0.00 48.6 90.7
10/21/19 - 2000 76.3 24 36.8 3.3 N | 358 6.1 N | 0 0.00 0 0.00 48.6 90.7
10/21/19 - 1900 80.3 20 35.5 2.8 N | 3 8.8 NW | 318 0.00 1 0.00 48.6 90.7
10/21/19 - 1800 86.3 17 36.0 3.5 NW | 315 9.6 NNW | 344 0.00 11 0.00 48.6 90.7
10/21/19 - 1700 88.3 17 38.1 7.8 NNW | 332 14.2 NW | 325 0.00 20 0.00 48.6 90.7
10/21/19 - 1600 89.5 19 41.3 6.5 NW | 326 13.2 NNW | 338 0.00 25 0.00 48.6 90.7
10/21/19 - 1500 89.5 20 42.9 4.1 NNW | 329 12.6 WNW | 299 0.00 43 0.00 48.6 90.7
10/21/19 - 1400 87.8 24 46.2 2.0 ENE | 75 5.1 E | 97 0.00 55 0.00 48.6 88.8
10/21/19 - 1300 83.3 30 48.8 3.3 SE | 134 7.8 SE | 142 0.00 56 0.00 48.6 86.8
10/21/19 - 1200 81.5 35 51.2 3.0 SE | 143 6.8 SSE | 152 0.00 51 0.00 48.6 83.8
10/21/19 - 1100 77.6 39 50.8 2.3 SSE | 154 6.3 S | 173 0.00 42 0.00 48.6 81.7
10/21/19 - 1000 71.5 49 51.6 1.8 SSE | 157 5.3 S | 172 0.00 30 0.00 48.6 74.6
10/21/19 - 0900 59.4 71 49.7 1.4 SSW | 212 4.1 SSE | 155 0.00 16 0.00 48.6 67.3
10/21/19 - 0800 49.7 84 45.1 0.5 W | 259 2.6 W | 261 0.00 2 0.00 48.6 57.4
10/21/19 - 0700 50.7 80 44.8 0.3 NW | 307 2.7 W | 272 0.00 0 0.00 48.6 57.4
10/21/19 - 0600 53.0 78 46.4 1.1 WSW | 253 3.9 W | 261 0.00 0 0.00 50.6 57.4
10/21/19 - 0500 53.5 78 47.0 1.9 SW | 230 4.3 WSW | 255 0.00 0 0.00 50.6 57.4
10/21/19 - 0400 53.2 77 46.1 2.2 WSW | 247 4.6 SW | 235 0.00 0 0.00 50.6 57.4
10/21/19 - 0300 52.1 77 45.1 1.8 WSW | 251 4.6 SW | 228 0.00 0 0.00 50.6 57.4
10/21/19 - 0200 51.4 75 43.7 1.0 WSW | 255 3.3 WSW | 252 0.00 0 0.00 50.6 57.4
10/21/19 - 0100 54.5 69 44.5 0.4 NW | 314 2.7 N | 353 0.00 0 0.00 51.5 57.4
10/21/19 - 0000 57.1 67 46.1 2.2 SW | 236 4.3 SW | 219 0.00 0 0.00 46.7 80.9
10/20/19 - 2300 57.2 62 44.5 1.4 W | 262 3.6 W | 260 0.00 0 0.00 46.7 80.9
10/20/19 - 2200 57.7 62 44.9 0.9 W | 261 2.7 W | 262 0.00 0 0.00 46.7 80.9
10/20/19 - 2100 61.4 58 46.5 1.3 W | 262 3.8 SSW | 212 0.00 0 0.00 46.7 80.9
10/20/19 - 2000 65.2 51 46.6 3.3 SW | 234 6.6 S | 184 0.00 0 0.00 46.7 80.9
10/20/19 - 1900 68.3 43 44.6 4.5 SW | 228 10.6 S | 189 0.00 1 0.00 46.7 80.9
10/20/19 - 1800 73.7 34 43.5 7.0 WSW | 239 12.1 SSW | 212 0.00 8 0.00 46.7 80.9
10/20/19 - 1700 77.0 29 42.0 8.6 WSW | 244 14.5 WSW | 243 0.00 16 0.00 46.7 80.9
10/20/19 - 1600 80.0 26 42.1 6.1 W | 259 11.0 WSW | 241 0.00 18 0.00 46.7 80.9
10/20/19 - 1500 79.8 27 42.8 5.0 SW | 221 10.8 WSW | 252 0.00 41 0.00 46.7 80.8
10/20/19 - 1400 77.8 31 44.5 3.6 SSE | 161 7.6 SSE | 163 0.00 54 0.00 46.7 79.6
10/20/19 - 1300 76.7 33 45.6 3.2 SE | 129 7.3 SE | 137 0.00 55 0.00 46.7 78.1
10/20/19 - 1200 74.7 36 46.1 3.3 SSE | 150 7.6 SE | 131 0.00 50 0.00 46.7 76.2
10/20/19 - 1100 72.1 43 48.4 2.7 S | 174 5.9 SE | 133 0.00 42 0.00 46.7 74.6
10/20/19 - 1000 66.6 57 50.8 1.9 SSW | 193 5.6 SE | 146 0.00 30 0.00 46.7 70.9
10/20/19 - 0900 53.4 93 51.4 0.5 SSW | 202 3.1 SSW | 192 0.00 16 0.00 46.7 60.8
10/20/19 - 0800 47.1 92 44.9 0.4 W | 272 2.7 SW | 236 0.00 2 0.00 46.7 54.4
10/20/19 - 0700 48.3 91 46.0 0.3 W | 270 3.1 WSW | 249 0.00 0 0.00 46.7 54.4
10/20/19 - 0600 49.7 91 47.1 1.0 WSW | 249 4.4 SW | 231 0.00 0 0.00 48.7 54.4
10/20/19 - 0500 51.5 90 48.5 1.3 WSW | 238 4.3 SW | 234 0.00 0 0.00 50.6 54.4
10/20/19 - 0400 52.5 88 49.2 1.1 W | 262 3.4 SW | 227 0.00 0 0.00 52.0 54.4
10/20/19 - 0300 53.0 88 49.6 1.2 WSW | 252 3.3 SW | 232 0.00 0 0.00 52.0 54.4
10/20/19 - 0200 53.6 90 50.6 1.6 W | 269 4.9 WNW | 284 0.00 0 0.00 52.0 54.4
10/20/19 - 0100 53.0 89 49.9 0.8 WSW | 242 3.3 SW | 233 0.00 0 0.00 52.0 53.8
10/20/19 - 0000 54.5 88 51.1 1.1 WSW | 254 2.9 W | 276 0.00 0 0.00 51.5 75.4
10/19/19 - 2300 56.4 86 52.4 1.0 WSW | 247 3.9 WSW | 240 0.00 0 0.00 51.5 75.4
10/19/19 - 2200 58.0 85 53.6 2.3 WSW | 239 6.3 SW | 233 0.00 0 0.00 51.5 75.4
10/19/19 - 2100 59.0 84 54.2 4.2 SW | 226 7.6 WSW | 238 0.00 0 0.00 51.5 75.4
10/19/19 - 2000 61.1 80 55.1 5.6 SW | 231 10.8 WSW | 247 0.00 0 0.00 51.5 75.4
10/19/19 - 1900 64.3 75 56.1 6.3 SW | 232 10.6 WSW | 251 0.00 1 0.00 51.5 75.4
10/19/19 - 1800 68.7 66 56.8 7.2 SW | 230 12.1 SW | 219 0.00 13 0.00 51.5 75.4
10/19/19 - 1700 71.1 62 57.6 8.1 SW | 234 14.0 WNW | 288 0.00 20 0.00 51.5 75.4
10/19/19 - 1600 72.5 60 58.0 7.2 SW | 224 13.2 S | 170 0.00 28 0.00 51.5 75.4
10/19/19 - 1500 72.9 57 56.8 7.6 SW | 222 13.2 SSE | 165 0.00 35 0.00 51.5 75.4
10/19/19 - 1400 74.7 52 55.9 7.4 SW | 236 13.5 W | 261 0.00 55 0.00 51.5 75.4
10/19/19 - 1300 71.6 56 55.0 7.2 SW | 235 14.6 W | 261 0.00 51 0.00 51.5 74.3
10/19/19 - 1200 68.6 58 53.0 6.4 SW | 236 13.0 W | 278 0.00 32 0.00 51.5 70.0
10/19/19 - 1100 66.4 53 48.9 6.1 SW | 227 11.6 W | 276 0.00 31 0.00 51.5 68.8
10/19/19 - 1000 63.3 51 44.9 2.8 SSE | 161 8.0 S | 185 0.00 24 0.00 51.5 67.9
10/19/19 - 0900 54.9 68 44.3 4.8 S | 191 11.0 S | 182 0.00 10 0.00 51.5 60.1
10/19/19 - 0800 52.3 73 43.8 5.0 SSW | 201 9.6 SW | 220 0.00 1 0.00 51.5 55.0
10/19/19 - 0700 52.6 73 44.3 5.3 SSW | 213 10.3 SW | 216 0.00 0 0.00 51.5 55.0
10/19/19 - 0600 52.6 76 45.1 5.1 SW | 231 11.3 S | 184 0.00 0 0.00 51.5 55.0
10/19/19 - 0500 52.2 78 45.6 4.8 SW | 232 9.3 WSW | 246 0.00 0 0.00 51.5 55.0
10/19/19 - 0400 52.1 79 45.8 5.0 SW | 235 9.8 WSW | 248 0.00 0 0.00 51.5 55.0
10/19/19 - 0300 52.1 81 46.4 5.6 SW | 230 10.0 WSW | 251 0.00 0 0.00 51.7 55.0
10/19/19 - 0200 53.0 80 46.9 7.0 SW | 230 11.1 WSW | 241 0.00 0 0.00 52.2 55.0
10/19/19 - 0100 54.5 78 47.8 6.6 SW | 226 11.3 SW | 216 0.00 0 0.00 53.8 55.0
10/19/19 - 0000 54.8 79 48.3 5.5 SW | 216 8.6 SSW | 206 0.00 0 0.00 45.1 74.1
10/18/19 - 2300 55.4 77 48.4 4.7 SSW | 207 9.0 SW | 230 0.00 0 0.00 45.1 74.1
10/18/19 - 2200 55.7 76 48.4 5.1 SW | 219 9.3 WSW | 238 0.00 0 0.00 45.1 74.1
10/18/19 - 2100 57.0 73 48.4 5.8 SW | 234 10.8 WNW | 303 0.00 0 0.00 45.1 74.1
10/18/19 - 2000 58.8 70 49.2 5.1 SW | 233 10.0 W | 259 0.00 0 0.00 45.1 74.1
10/18/19 - 1900 61.9 63 49.1 6.5 WSW | 244 13.0 W | 265 0.00 1 0.00 45.1 74.1
10/18/19 - 1800 67.0 50 47.5 7.4 WSW | 242 13.2 SW | 226 0.00 10 0.00 45.1 74.1
10/18/19 - 1700 69.7 42 45.7 7.9 WSW | 238 12.8 SW | 223 0.00 18 0.00 45.1 74.1
10/18/19 - 1600 71.7 38 44.6 9.3 WSW | 239 17.0 WNW | 297 0.00 22 0.00 45.1 74.1
10/18/19 - 1500 73.2 41 48.3 8.5 SW | 236 16.0 SW | 215 0.00 35 0.00 45.1 74.1
10/18/19 - 1400 73.5 43 49.6 7.3 WSW | 243 13.2 SSW | 210 0.00 54 0.00 45.1 74.1
10/18/19 - 1300 71.1 47 49.6 6.9 WSW | 254 14.2 SW | 215 0.00 46 0.00 45.1 72.9
10/18/19 - 1200 68.8 53 51.1 7.0 WSW | 252 11.5 W | 259 0.00 42 0.00 45.1 71.2
10/18/19 - 1100 66.5 51 48.0 6.9 WSW | 239 11.5 WSW | 243 0.00 37 0.00 45.1 68.1
10/18/19 - 1000 61.7 57 46.2 7.4 SW | 230 11.6 WSW | 248 0.00 25 0.00 45.1 64.0
10/18/19 - 0900 55.4 65 43.9 2.4 WNW | 303 9.5 SW | 230 0.00 14 0.00 45.1 60.4
10/18/19 - 0800 51.5 73 43.3 3.4 W | 267 9.3 SW | 234 0.00 2 0.00 45.1 58.6
10/18/19 - 0700 48.6 77 41.8 2.5 W | 260 6.3 SSW | 212 0.00 0 0.00 45.1 58.6
10/18/19 - 0600 46.4 76 39.3 0.4 W | 266 2.2 WSW | 254 0.00 0 0.00 45.1 58.6
10/18/19 - 0500 50.0 73 41.7 1.9 WSW | 257 5.4 WSW | 258 0.00 0 0.00 48.2 58.6
10/18/19 - 0400 51.0 71 42.1 3.9 WSW | 240 6.4 SW | 233 0.00 0 0.00 50.4 58.6
10/18/19 - 0300 51.8 66 40.6 1.7 WNW | 302 5.8 SW | 224 0.00 0 0.00 50.8 58.6
10/18/19 - 0200 55.7 58 41.4 3.0 WNW | 285 8.3 NW | 305 0.00 0 0.00 52.7 58.6
10/18/19 - 0100 57.8 55 41.8 4.7 NW | 323 9.3 NW | 317 0.00 0 0.00 56.8 58.6
10/18/19 - 0000 59.0 53 41.8 4.2 WNW | 302 10.5 WNW | 289 0.00 0 0.00 52.4 77.7
10/17/19 - 2300 59.9 51 41.8 5.2 NW | 323 11.0 NW | 320 0.00 0 0.00 52.4 77.7
10/17/19 - 2200 60.2 48 40.8 4.1 WNW | 302 8.1 WNW | 282 0.00 0 0.00 52.4 77.7
10/17/19 - 2100 60.5 48 40.5 2.9 NW | 305 5.9 WNW | 303 0.00 0 0.00 52.4 77.7
10/17/19 - 2000 61.3 52 43.4 3.4 W | 264 7.8 WNW | 284 0.00 0 0.00 52.4 77.7
10/17/19 - 1900 63.7 53 46.4 6.5 WSW | 252 12.5 W | 279 0.00 1 0.00 52.4 77.7
10/17/19 - 1800 68.4 45 46.2 8.6 WSW | 256 16.2 W | 272 0.00 11 0.00 52.4 77.7
10/17/19 - 1700 72.9 34 42.4 9.1 W | 269 15.8 WSW | 245 0.00 20 0.00 52.4 77.7
10/17/19 - 1600 75.0 27 39.2 8.7 WNW | 291 16.5 NW | 317 0.00 28 0.00 52.4 77.7
10/17/19 - 1500 76.6 25 38.1 6.5 W | 277 13.2 WNW | 283 0.00 39 0.00 52.4 77.7
10/17/19 - 1400 75.4 27 38.6 6.3 W | 273 13.3 NNW | 333 0.00 55 0.00 52.4 76.4
10/17/19 - 1300 73.3 30 40.1 5.7 W | 271 12.0 NW | 310 0.00 59 0.00 52.4 74.4
10/17/19 - 1200 70.6 37 42.8 5.6 WNW | 288 10.0 WNW | 288 0.00 55 0.00 52.4 72.3
10/17/19 - 1100 67.8 42 44.0 6.9 WNW | 295 12.5 WNW | 298 0.00 45 0.00 52.4 69.2
10/17/19 - 1000 63.4 56 47.3 4.8 WNW | 290 10.3 NW | 305 0.00 34 0.00 52.4 66.9
10/17/19 - 0900 56.2 80 50.2 3.3 W | 265 8.1 W | 272 0.00 14 0.00 52.4 60.4
10/17/19 - 0800 53.3 88 50.0 4.4 WSW | 238 9.8 WNW | 285 0.00 2 0.00 52.4 59.4
10/17/19 - 0700 54.3 89 51.2 3.3 SW | 224 7.1 SW | 220 0.00 0 0.00 52.9 59.4
10/17/19 - 0600 56.5 90 53.6 5.9 SW | 221 10.8 W | 262 0.00 0 0.00 55.6 59.4
10/17/19 - 0500 56.7 90 53.9 3.4 S | 178 8.3 ESE | 118 0.00 0 0.00 55.6 59.4
10/17/19 - 0400 56.3 90 53.4 3.4 WSW | 247 8.4 WSW | 237 0.00 0 0.00 55.6 59.4
10/17/19 - 0300 57.0 89 53.7 5.0 WSW | 251 10.6 WNW | 286 0.00 0 0.00 56.4 59.4
10/17/19 - 0200 58.4 87 54.7 6.2 WSW | 252 13.6 SW | 225 0.00 0 0.00 57.7 59.4
10/17/19 - 0100 59.0 86 54.8 7.8 SW | 236 13.8 WSW | 254 0.00 0 0.00 58.7 59.4
10/17/19 - 0000 60.5 79 53.8 8.8 WSW | 241 16.3 WSW | 254 0.00 0 0.00 41.5 75.4
10/16/19 - 2300 60.2 73 51.7 6.4 SW | 232 14.0 W | 275 0.00 0 0.00 41.5 75.4
10/16/19 - 2200 59.2 72 50.4 6.5 SW | 223 12.6 S | 179 0.00 0 0.00 41.5 75.4
10/16/19 - 2100 59.4 71 49.8 6.5 SW | 234 11.5 SW | 233 0.00 0 0.00 41.5 75.4
10/16/19 - 2000 60.2 68 49.6 5.5 SW | 229 10.6 WSW | 254 0.00 0 0.00 41.5 75.4
10/16/19 - 1900 61.6 64 49.3 4.6 WSW | 250 9.5 W | 269 0.00 0 0.00 41.5 75.4
10/16/19 - 1800 64.5 56 48.3 6.6 WSW | 256 12.0 W | 267 0.00 4 0.00 41.5 75.4
10/16/19 - 1700 68.5 50 49.4 8.6 WSW | 244 13.5 WSW | 237 0.00 15 0.00 41.5 75.4
10/16/19 - 1600 70.7 45 48.5 7.0 SW | 221 11.6 SW | 229 0.00 20 0.00 41.5 75.4
10/16/19 - 1500 73.8 35 44.6 6.4 SW | 228 10.5 W | 263 0.00 32 0.00 41.5 75.4
10/16/19 - 1400 73.4 35 44.4 5.6 SW | 216 11.0 SSW | 204 0.00 48 0.00 41.5 75.2
10/16/19 - 1300 71.3 38 44.1 3.9 SSW | 203 8.0 WSW | 241 0.00 41 0.00 41.5 74.2
10/16/19 - 1200 68.6 42 44.8 2.6 SSW | 194 6.9 SSW | 201 0.00 36 0.00 41.5 70.5
10/16/19 - 1100 63.0 54 46.0 3.0 SW | 225 5.9 S | 185 0.00 26 0.00 41.5 65.8
10/16/19 - 1000 58.6 61 45.1 2.2 SSW | 213 5.8 SSE | 161 0.00 13 0.00 41.5 60.0
Max 89.5 93 58.0 9.3 - 17.0 - 0.00 59 0.00 58.7 90.7
Avg 62.8 60 46.3 3.7 - 8.0 - 0.00 13 - - -
Min 45.0 17 35.5 0.0 - 1.2 - 0.00 0 0.00 41.5 53.8
Total - - - - - - - 0.00 - - - -
Tip: Bookmark this page for easy future reference